Riviera Beach, FL

8:59 PM EDT on September 21, 2014 (GMT -0400)
Palm Beach International | Change Station
CLOSE
Current Station
Airport
Location: West Palm Beach,
Elevation: 20 ft
Nearby Weather Stations

Elev 20 ft 26.68 °N, 80.10 °W | Updated 6 minutes ago

Mostly Cloudy
Mostly Cloudy
75 °F
Feels Like 75 °F
N
6
Wind Variable Wind from South

Today
High -- | Low -- °F
--% Chance of Precip.
Yesterday
High -- | Low -- °F
Precip. -- in
7:08 AM 7:17 PM
Waning Crescent, 5% visible
Pressure 30.01 in
Visibility 10.0 miles
Clouds Few 2000 ft
Mostly Cloudy 12000 ft
Overcast 20000 ft
Dew Point 74 °F
Humidity 96%
Rainfall 0.59 in
Snow Depth Not available.
UV 0 out of 12
Pollen 4.30 out of 12
Ozone Good
PM2.5 Good
Flu Activity Not available.
METAR KPBI 220053Z 17005KT 10SM FEW020 BKN120 OVC200 24/23 A3001 RMK AO2 RAE21 SLP161 P0000 T02390233 $

More Conditions Fewer Conditions

Pressure 30.01 in
Visibility 10.0 miles
Clouds Few 2000 ft
Mostly Cloudy 12000 ft
Overcast 20000 ft
Dew Point 74 °F
Humidity 96%
Rainfall 0.59 in
Snow Depth Not available.
UV 0 out of 12
Pollen 4.30 out of 12
Ozone Good
PM2.5 Good
Flu Activity Not available.
METAR KPBI 220053Z 17005KT 10SM FEW020 BKN120 OVC200 24/23 A3001 RMK AO2 RAE21 SLP161 P0000 T02390233 $

More Conditions Fewer Conditions

Nowcast | as of 8:44 PM EDT on September 21, 2014

The strong thunderstorms that affected portions of Palm Beach and Broward counties, as well as the surrounding coastal waters, have weakened. Only isolated showers and thunderstorms continue over portions of Pembroke Pines, Miramar, and westward into the Pennsuco area. This activity is generally moving from west to east. Brief heavy downpours and cloud to ground lightning is still possible in these areas.

×

10-Day Weather Forecast

Almanac

Astronomy

Sep. 21, 2014 Rise Set
Actual Time 7:08 AM EDT 7:17 PM EDT
Civil Twilight 6:45 AM EDT 7:41 PM EDT
Nautical Twilight 6:18 AM EDT 8:07 PM EDT
Astronomical Twilight 5:51 AM EDT 8:35 PM EDT
Moon 4:51 AM EDT (9/21) 5:44 PM EDT (9/21)
Length of Visible Light 12h 55m
Length of Day
12h 09m
Tomorrow will be 1m 33s shorter.
Waning Crescent, 5% of the Moon is Illuminated
Today
Waning Crescent
Sep 24
New
Oct 1
First Quarter
Oct 8
Full
Oct 15
Last Quarter

Today's Extremes

State Highs State Lows

Community

WunderPhotos

Upload Photos

1,755,316 photos uploaded!

WunderBlogs® & News

Nearby

Air Quality

  Air Quality AQ Index Pollutant
Yesterday Good
PM2.5
Yesterday Good
OZONE
Current Good
PM2.5
Current Good
OZONE
Sunday Good
OZONE
Sunday Good
PM2.5
Monday Good
OZONE
Monday Good
PM2.5

Snow Depth

Station Depth Elevation
No new snow has been reported.

Earthquake Activity

City Distance Mag. Time & Date
No recent earthquake activity has been reported nearby.
Minimum magnitude displayed is 2.5.

Coastal Water Temperatures

Place Temperature
Lake Worth, FL 84.9 °F
Virginia Key, FL 84.9 °F

Nearby Weather Stations